sensor_id;sensor_type;location;lat;lon;timestamp;temperature;humidity
50907;DHT22;36882;27.680;85.304;2022-08-19T00:00:09;24.50;99.70
50907;DHT22;36882;27.680;85.304;2022-08-19T00:02:40;24.50;99.90
50907;DHT22;36882;27.680;85.304;2022-08-19T00:05:18;24.50;99.90
50907;DHT22;36882;27.680;85.304;2022-08-19T00:07:49;24.50;99.90
50907;DHT22;36882;27.680;85.304;2022-08-19T00:10:20;24.50;99.80
50907;DHT22;36882;27.680;85.304;2022-08-19T00:12:51;24.40;99.70
50907;DHT22;36882;27.680;85.304;2022-08-19T00:15:23;24.40;99.80
50907;DHT22;36882;27.680;85.304;2022-08-19T00:17:54;24.30;99.80
50907;DHT22;36882;27.680;85.304;2022-08-19T00:20:40;24.20;99.90
50907;DHT22;36882;27.680;85.304;2022-08-19T00:23:11;24.20;99.90
50907;DHT22;36882;27.680;85.304;2022-08-19T00:25:42;24.20;99.90
50907;DHT22;36882;27.680;85.304;2022-08-19T00:28:36;24.30;99.90
50907;DHT22;36882;27.680;85.304;2022-08-19T00:31:22;24.30;99.90
50907;DHT22;36882;27.680;85.304;2022-08-19T00:34:11;24.40;99.70
50907;DHT22;36882;27.680;85.304;2022-08-19T00:36:42;24.50;99.90
50907;DHT22;36882;27.680;85.304;2022-08-19T00:39:14;24.60;99.90
50907;DHT22;36882;27.680;85.304;2022-08-19T00:41:47;24.60;99.80
50907;DHT22;36882;27.680;85.304;2022-08-19T00:44:23;24.60;99.80
50907;DHT22;36882;27.680;85.304;2022-08-19T00:47:08;24.70;99.20
50907;DHT22;36882;27.680;85.304;2022-08-19T00:49:51;24.70;99.20
50907;DHT22;36882;27.680;85.304;2022-08-19T00:52:32;24.70;99.40
50907;DHT22;36882;27.680;85.304;2022-08-19T00:55:06;24.80;99.50
50907;DHT22;36882;27.680;85.304;2022-08-19T00:57:47;24.90;99.40
50907;DHT22;36882;27.680;85.304;2022-08-19T01:00:20;24.90;99.70
50907;DHT22;36882;27.680;85.304;2022-08-19T01:02:52;24.90;99.60
50907;DHT22;36882;27.680;85.304;2022-08-19T01:12:37;24.20;99.90
50907;DHT22;36882;27.680;85.304;2022-08-19T01:15:34;23.90;99.90
50907;DHT22;36882;27.680;85.304;2022-08-19T01:18:21;24.20;99.90
50907;DHT22;36882;27.680;85.304;2022-08-19T01:20:53;24.60;99.90
50907;DHT22;36882;27.680;85.304;2022-08-19T01:23:24;24.80;99.40
50907;DHT22;36882;27.680;85.304;2022-08-19T01:26:27;24.90;99.40
50907;DHT22;36882;27.680;85.304;2022-08-19T01:28:59;25.10;99.70
50907;DHT22;36882;27.680;85.304;2022-08-19T01:31:31;25.20;99.30
50907;DHT22;36882;27.680;85.304;2022-08-19T01:34:02;25.30;99.10
50907;DHT22;36882;27.680;85.304;2022-08-19T01:36:38;25.30;99.30
50907;DHT22;36882;27.680;85.304;2022-08-19T01:39:15;25.40;99.20
50907;DHT22;36882;27.680;85.304;2022-08-19T01:41:47;25.50;98.70
50907;DHT22;36882;27.680;85.304;2022-08-19T01:44:33;25.50;98.60
50907;DHT22;36882;27.680;85.304;2022-08-19T01:47:06;25.40;98.50
50907;DHT22;36882;27.680;85.304;2022-08-19T01:49:37;25.40;98.80
50907;DHT22;36882;27.680;85.304;2022-08-19T01:52:07;25.40;99.00
50907;DHT22;36882;27.680;85.304;2022-08-19T01:54:38;25.50;98.50
50907;DHT22;36882;27.680;85.304;2022-08-19T01:57:10;25.50;98.90
50907;DHT22;36882;27.680;85.304;2022-08-19T01:59:43;25.70;98.50
50907;DHT22;36882;27.680;85.304;2022-08-19T02:02:15;25.80;98.90
50907;DHT22;36882;27.680;85.304;2022-08-19T02:04:46;25.90;99.00
50907;DHT22;36882;27.680;85.304;2022-08-19T02:07:20;25.90;99.00
50907;DHT22;36882;27.680;85.304;2022-08-19T02:09:51;26.00;98.70
50907;DHT22;36882;27.680;85.304;2022-08-19T02:12:22;26.00;98.20
50907;DHT22;36882;27.680;85.304;2022-08-19T02:14:53;25.90;98.10
50907;DHT22;36882;27.680;85.304;2022-08-19T02:17:23;26.00;98.90
50907;DHT22;36882;27.680;85.304;2022-08-19T02:19:53;26.10;98.60
50907;DHT22;36882;27.680;85.304;2022-08-19T02:22:24;26.10;98.70
50907;DHT22;36882;27.680;85.304;2022-08-19T02:24:55;26.10;98.60
50907;DHT22;36882;27.680;85.304;2022-08-19T02:27:26;26.30;98.20
50907;DHT22;36882;27.680;85.304;2022-08-19T02:29:56;26.30;98.00
50907;DHT22;36882;27.680;85.304;2022-08-19T02:32:28;26.40;97.50
50907;DHT22;36882;27.680;85.304;2022-08-19T02:35:11;26.30;97.90
50907;DHT22;36882;27.680;85.304;2022-08-19T02:37:43;26.30;97.60
50907;DHT22;36882;27.680;85.304;2022-08-19T02:40:33;26.40;97.90
50907;DHT22;36882;27.680;85.304;2022-08-19T02:43:20;26.40;96.90
50907;DHT22;36882;27.680;85.304;2022-08-19T02:45:51;26.60;97.10
50907;DHT22;36882;27.680;85.304;2022-08-19T02:48:24;26.70;97.30
50907;DHT22;36882;27.680;85.304;2022-08-19T02:50:55;26.80;96.90
50907;DHT22;36882;27.680;85.304;2022-08-19T02:53:28;27.10;96.80
50907;DHT22;36882;27.680;85.304;2022-08-19T02:55:58;27.30;96.40
50907;DHT22;36882;27.680;85.304;2022-08-19T02:58:45;27.40;95.70
50907;DHT22;36882;27.680;85.304;2022-08-19T03:01:26;27.60;95.10
50907;DHT22;36882;27.680;85.304;2022-08-19T03:04:00;27.70;95.40
50907;DHT22;36882;27.680;85.304;2022-08-19T03:06:47;27.70;96.10
50907;DHT22;36882;27.680;85.304;2022-08-19T03:09:19;27.80;95.50
50907;DHT22;36882;27.680;85.304;2022-08-19T03:11:50;27.90;94.50
50907;DHT22;36882;27.680;85.304;2022-08-19T03:14:21;28.00;93.80
50907;DHT22;36882;27.680;85.304;2022-08-19T03:16:52;28.20;94.60
50907;DHT22;36882;27.680;85.304;2022-08-19T03:19:23;28.30;95.60
50907;DHT22;36882;27.680;85.304;2022-08-19T03:21:54;28.50;94.50
50907;DHT22;36882;27.680;85.304;2022-08-19T03:24:25;28.70;95.10
50907;DHT22;36882;27.680;85.304;2022-08-19T03:26:56;29.00;94.40
50907;DHT22;36882;27.680;85.304;2022-08-19T03:29:29;29.10;93.40
50907;DHT22;36882;27.680;85.304;2022-08-19T03:32:10;29.20;93.10
50907;DHT22;36882;27.680;85.304;2022-08-19T03:34:59;29.30;93.00
50907;DHT22;36882;27.680;85.304;2022-08-19T03:37:30;29.40;93.20
50907;DHT22;36882;27.680;85.304;2022-08-19T03:40:00;29.50;92.40
50907;DHT22;36882;27.680;85.304;2022-08-19T03:42:33;29.60;92.50
50907;DHT22;36882;27.680;85.304;2022-08-19T03:45:16;29.80;93.40
50907;DHT22;36882;27.680;85.304;2022-08-19T03:47:46;29.80;93.00
50907;DHT22;36882;27.680;85.304;2022-08-19T03:50:17;29.90;93.60
50907;DHT22;36882;27.680;85.304;2022-08-19T03:52:50;29.90;93.10
50907;DHT22;36882;27.680;85.304;2022-08-19T03:55:42;30.10;91.40
50907;DHT22;36882;27.680;85.304;2022-08-19T03:58:12;30.00;92.00
50907;DHT22;36882;27.680;85.304;2022-08-19T04:00:43;30.20;91.40
50907;DHT22;36882;27.680;85.304;2022-08-19T04:03:14;30.20;92.10
50907;DHT22;36882;27.680;85.304;2022-08-19T04:05:46;30.30;90.70
50907;DHT22;36882;27.680;85.304;2022-08-19T04:08:31;30.30;90.90
50907;DHT22;36882;27.680;85.304;2022-08-19T04:11:21;30.30;90.70
50907;DHT22;36882;27.680;85.304;2022-08-19T04:14:15;30.10;90.30
50907;DHT22;36882;27.680;85.304;2022-08-19T04:16:47;30.00;91.00
50907;DHT22;36882;27.680;85.304;2022-08-19T04:19:35;30.00;90.30
50907;DHT22;36882;27.680;85.304;2022-08-19T04:22:06;29.90;90.90
50907;DHT22;36882;27.680;85.304;2022-08-19T04:24:52;29.90;91.10
50907;DHT22;36882;27.680;85.304;2022-08-19T04:27:24;29.90;91.30
50907;DHT22;36882;27.680;85.304;2022-08-19T04:29:54;29.60;90.20
50907;DHT22;36882;27.680;85.304;2022-08-19T04:32:25;29.40;91.40
50907;DHT22;36882;27.680;85.304;2022-08-19T04:34:55;29.40;91.70
50907;DHT22;36882;27.680;85.304;2022-08-19T04:37:41;29.50;91.20
50907;DHT22;36882;27.680;85.304;2022-08-19T04:40:15;29.60;91.40
50907;DHT22;36882;27.680;85.304;2022-08-19T04:42:56;29.60;90.80
50907;DHT22;36882;27.680;85.304;2022-08-19T04:45:26;29.70;90.10
50907;DHT22;36882;27.680;85.304;2022-08-19T04:48:10;29.70;90.70
50907;DHT22;36882;27.680;85.304;2022-08-19T04:50:56;30.00;90.50
50907;DHT22;36882;27.680;85.304;2022-08-19T04:53:30;30.10;90.90
50907;DHT22;36882;27.680;85.304;2022-08-19T04:56:11;30.30;90.40
50907;DHT22;36882;27.680;85.304;2022-08-19T04:58:44;30.30;89.90
50907;DHT22;36882;27.680;85.304;2022-08-19T05:01:19;30.40;89.70
50907;DHT22;36882;27.680;85.304;2022-08-19T05:03:50;30.50;90.20
50907;DHT22;36882;27.680;85.304;2022-08-19T05:06:22;30.70;89.20
50907;DHT22;36882;27.680;85.304;2022-08-19T05:08:53;30.60;89.10
50907;DHT22;36882;27.680;85.304;2022-08-19T05:11:39;30.50;90.30
50907;DHT22;36882;27.680;85.304;2022-08-19T05:14:11;31.00;90.30
50907;DHT22;36882;27.680;85.304;2022-08-19T05:16:57;30.70;87.80
50907;DHT22;36882;27.680;85.304;2022-08-19T05:19:48;30.60;88.80
50907;DHT22;36882;27.680;85.304;2022-08-19T05:22:30;30.50;90.40
50907;DHT22;36882;27.680;85.304;2022-08-19T05:25:09;30.50;89.00
50907;DHT22;36882;27.680;85.304;2022-08-19T05:27:42;30.60;90.50
50907;DHT22;36882;27.680;85.304;2022-08-19T05:30:13;30.70;91.10
50907;DHT22;36882;27.680;85.304;2022-08-19T05:32:59;30.80;91.40
50907;DHT22;36882;27.680;85.304;2022-08-19T05:35:31;30.90;91.40
50907;DHT22;36882;27.680;85.304;2022-08-19T05:38:01;30.80;91.50
50907;DHT22;36882;27.680;85.304;2022-08-19T05:40:35;30.90;91.30
50907;DHT22;36882;27.680;85.304;2022-08-19T05:43:07;31.00;90.60
50907;DHT22;36882;27.680;85.304;2022-08-19T05:45:54;31.10;90.50
50907;DHT22;36882;27.680;85.304;2022-08-19T05:48:40;31.00;91.30
50907;DHT22;36882;27.680;85.304;2022-08-19T05:51:10;30.90;90.80
50907;DHT22;36882;27.680;85.304;2022-08-19T05:53:44;30.80;90.50
50907;DHT22;36882;27.680;85.304;2022-08-19T05:56:31;30.80;91.00
50907;DHT22;36882;27.680;85.304;2022-08-19T05:59:02;30.80;90.80
50907;DHT22;36882;27.680;85.304;2022-08-19T06:01:34;30.90;90.90
50907;DHT22;36882;27.680;85.304;2022-08-19T06:04:05;31.00;91.10
50907;DHT22;36882;27.680;85.304;2022-08-19T06:06:36;31.10;90.60
50907;DHT22;36882;27.680;85.304;2022-08-19T06:09:07;31.20;90.10
50907;DHT22;36882;27.680;85.304;2022-08-19T06:11:44;31.40;90.40
50907;DHT22;36882;27.680;85.304;2022-08-19T06:14:32;31.50;89.60
50907;DHT22;36882;27.680;85.304;2022-08-19T06:17:19;31.60;89.60
50907;DHT22;36882;27.680;85.304;2022-08-19T06:23:18;31.50;89.40
50907;DHT22;36882;27.680;85.304;2022-08-19T06:25:51;31.70;88.80
50907;DHT22;36882;27.680;85.304;2022-08-19T06:28:22;31.70;88.40
50907;DHT22;36882;27.680;85.304;2022-08-19T06:30:52;31.70;87.50
50907;DHT22;36882;27.680;85.304;2022-08-19T06:33:23;31.80;88.90
50907;DHT22;36882;27.680;85.304;2022-08-19T06:35:54;31.90;87.70
50907;DHT22;36882;27.680;85.304;2022-08-19T06:38:25;32.00;85.40
50907;DHT22;36882;27.680;85.304;2022-08-19T06:41:04;32.10;87.00
50907;DHT22;36882;27.680;85.304;2022-08-19T06:43:35;32.00;87.10
50907;DHT22;36882;27.680;85.304;2022-08-19T06:46:12;32.00;87.30
50907;DHT22;36882;27.680;85.304;2022-08-19T06:48:44;32.00;87.60
50907;DHT22;36882;27.680;85.304;2022-08-19T06:51:30;32.10;87.20
50907;DHT22;36882;27.680;85.304;2022-08-19T06:54:10;32.00;86.90
50907;DHT22;36882;27.680;85.304;2022-08-19T06:56:46;32.00;87.10
50907;DHT22;36882;27.680;85.304;2022-08-19T06:59:19;31.90;87.30
50907;DHT22;36882;27.680;85.304;2022-08-19T07:01:52;32.00;87.00
50907;DHT22;36882;27.680;85.304;2022-08-19T07:04:39;32.10;88.10
50907;DHT22;36882;27.680;85.304;2022-08-19T07:07:25;32.10;87.80
50907;DHT22;36882;27.680;85.304;2022-08-19T07:09:55;32.20;88.00
50907;DHT22;36882;27.680;85.304;2022-08-19T07:12:31;32.30;87.50
50907;DHT22;36882;27.680;85.304;2022-08-19T07:15:05;32.30;86.00
50907;DHT22;36882;27.680;85.304;2022-08-19T07:17:38;32.40;85.90
50907;DHT22;36882;27.680;85.304;2022-08-19T07:20:11;32.50;86.00
50907;DHT22;36882;27.680;85.304;2022-08-19T07:22:45;32.60;85.30
50907;DHT22;36882;27.680;85.304;2022-08-19T07:25:15;32.70;86.60
50907;DHT22;36882;27.680;85.304;2022-08-19T07:28:03;32.60;86.30
50907;DHT22;36882;27.680;85.304;2022-08-19T07:30:49;32.60;85.80
50907;DHT22;36882;27.680;85.304;2022-08-19T07:33:20;32.60;85.90
50907;DHT22;36882;27.680;85.304;2022-08-19T07:35:54;32.70;87.10
50907;DHT22;36882;27.680;85.304;2022-08-19T07:38:25;32.70;86.80
50907;DHT22;36882;27.680;85.304;2022-08-19T07:40:55;32.80;86.30
50907;DHT22;36882;27.680;85.304;2022-08-19T07:43:26;32.80;86.80
50907;DHT22;36882;27.680;85.304;2022-08-19T07:46:01;33.00;86.40
50907;DHT22;36882;27.680;85.304;2022-08-19T07:48:32;32.80;86.20
50907;DHT22;36882;27.680;85.304;2022-08-19T07:51:05;32.60;85.80
50907;DHT22;36882;27.680;85.304;2022-08-19T07:53:41;32.50;85.50
50907;DHT22;36882;27.680;85.304;2022-08-19T07:56:28;32.50;86.20
50907;DHT22;36882;27.680;85.304;2022-08-19T07:58:59;32.30;85.80
50907;DHT22;36882;27.680;85.304;2022-08-19T08:01:30;32.30;86.80
50907;DHT22;36882;27.680;85.304;2022-08-19T08:04:08;32.40;86.30
50907;DHT22;36882;27.680;85.304;2022-08-19T08:06:59;32.50;86.30
50907;DHT22;36882;27.680;85.304;2022-08-19T08:09:50;32.40;86.10
50907;DHT22;36882;27.680;85.304;2022-08-19T08:12:28;32.20;87.10
50907;DHT22;36882;27.680;85.304;2022-08-19T08:15:10;32.10;86.90
50907;DHT22;36882;27.680;85.304;2022-08-19T08:17:44;32.00;87.90
50907;DHT22;36882;27.680;85.304;2022-08-19T08:20:19;31.80;87.80
50907;DHT22;36882;27.680;85.304;2022-08-19T08:22:49;31.70;88.20
50907;DHT22;36882;27.680;85.304;2022-08-19T08:25:30;31.70;87.40
50907;DHT22;36882;27.680;85.304;2022-08-19T08:28:17;31.60;87.50
50907;DHT22;36882;27.680;85.304;2022-08-19T08:30:49;31.50;88.00
50907;DHT22;36882;27.680;85.304;2022-08-19T08:33:23;31.50;89.00
50907;DHT22;36882;27.680;85.304;2022-08-19T08:36:04;31.60;88.60
50907;DHT22;36882;27.680;85.304;2022-08-19T08:38:38;31.50;87.50
50907;DHT22;36882;27.680;85.304;2022-08-19T08:41:31;31.50;88.20
50907;DHT22;36882;27.680;85.304;2022-08-19T08:44:04;31.50;88.60
50907;DHT22;36882;27.680;85.304;2022-08-19T08:46:48;31.30;88.90
50907;DHT22;36882;27.680;85.304;2022-08-19T08:49:32;31.20;89.40
50907;DHT22;36882;27.680;85.304;2022-08-19T08:52:08;31.20;89.80
50907;DHT22;36882;27.680;85.304;2022-08-19T08:54:44;31.10;89.70
50907;DHT22;36882;27.680;85.304;2022-08-19T09:00:36;31.00;89.80
50907;DHT22;36882;27.680;85.304;2022-08-19T09:03:27;30.80;89.20
50907;DHT22;36882;27.680;85.304;2022-08-19T09:06:14;30.90;89.40
50907;DHT22;36882;27.680;85.304;2022-08-19T09:08:55;30.80;88.90
50907;DHT22;36882;27.680;85.304;2022-08-19T09:11:56;30.70;89.30
50907;DHT22;36882;27.680;85.304;2022-08-19T09:15:22;30.90;88.80
50907;DHT22;36882;27.680;85.304;2022-08-19T09:17:30;30.80;88.30
50907;DHT22;36882;27.680;85.304;2022-08-19T09:20:24;30.70;89.40
50907;DHT22;36882;27.680;85.304;2022-08-19T09:22:55;30.80;88.60
50907;DHT22;36882;27.680;85.304;2022-08-19T09:25:26;30.80;89.20
50907;DHT22;36882;27.680;85.304;2022-08-19T09:28:12;30.90;88.90
50907;DHT22;36882;27.680;85.304;2022-08-19T09:30:52;30.80;87.90
50907;DHT22;36882;27.680;85.304;2022-08-19T09:33:22;30.80;89.20
50907;DHT22;36882;27.680;85.304;2022-08-19T09:36:04;30.60;89.50
50907;DHT22;36882;27.680;85.304;2022-08-19T09:38:36;30.70;89.70
50907;DHT22;36882;27.680;85.304;2022-08-19T09:41:13;30.70;89.30
50907;DHT22;36882;27.680;85.304;2022-08-19T09:43:46;30.70;90.40
50907;DHT22;36882;27.680;85.304;2022-08-19T09:46:20;30.60;90.40
50907;DHT22;36882;27.680;85.304;2022-08-19T09:48:52;30.20;90.90
50907;DHT22;36882;27.680;85.304;2022-08-19T09:51:25;29.90;91.40
50907;DHT22;36882;27.680;85.304;2022-08-19T09:54:01;29.70;91.90
50907;DHT22;36882;27.680;85.304;2022-08-19T09:56:33;29.60;91.90
50907;DHT22;36882;27.680;85.304;2022-08-19T09:59:04;29.60;92.00
50907;DHT22;36882;27.680;85.304;2022-08-19T10:01:34;29.60;92.00
50907;DHT22;36882;27.680;85.304;2022-08-19T10:04:20;29.50;92.10
50907;DHT22;36882;27.680;85.304;2022-08-19T10:07:07;29.40;92.30
50907;DHT22;36882;27.680;85.304;2022-08-19T10:09:53;29.20;92.90
50907;DHT22;36882;27.680;85.304;2022-08-19T10:12:24;29.00;93.10
50907;DHT22;36882;27.680;85.304;2022-08-19T10:14:54;29.00;93.50
50907;DHT22;36882;27.680;85.304;2022-08-19T10:17:25;28.90;93.60
50907;DHT22;36882;27.680;85.304;2022-08-19T10:20:00;28.80;93.80
50907;DHT22;36882;27.680;85.304;2022-08-19T10:22:32;28.80;93.90
50907;DHT22;36882;27.680;85.304;2022-08-19T10:25:06;28.60;93.10
50907;DHT22;36882;27.680;85.304;2022-08-19T10:27:56;28.50;93.50
50907;DHT22;36882;27.680;85.304;2022-08-19T10:30:27;28.40;93.30
50907;DHT22;36882;27.680;85.304;2022-08-19T10:32:58;28.30;94.00
50907;DHT22;36882;27.680;85.304;2022-08-19T10:35:37;28.30;94.30
50907;DHT22;36882;27.680;85.304;2022-08-19T10:38:23;28.30;94.20
50907;DHT22;36882;27.680;85.304;2022-08-19T10:41:12;28.10;94.10
50907;DHT22;36882;27.680;85.304;2022-08-19T10:43:43;28.10;94.00
50907;DHT22;36882;27.680;85.304;2022-08-19T10:46:15;28.00;93.40
50907;DHT22;36882;27.680;85.304;2022-08-19T10:49:03;27.90;92.60
50907;DHT22;36882;27.680;85.304;2022-08-19T10:51:34;27.70;91.60
50907;DHT22;36882;27.680;85.304;2022-08-19T10:54:16;27.70;92.30
50907;DHT22;36882;27.680;85.304;2022-08-19T10:56:59;27.80;92.30
50907;DHT22;36882;27.680;85.304;2022-08-19T10:59:45;27.70;91.30
50907;DHT22;36882;27.680;85.304;2022-08-19T11:02:17;27.60;91.90
50907;DHT22;36882;27.680;85.304;2022-08-19T11:04:47;27.70;91.30
50907;DHT22;36882;27.680;85.304;2022-08-19T11:07:20;27.80;91.00
50907;DHT22;36882;27.680;85.304;2022-08-19T11:10:08;27.80;92.00
50907;DHT22;36882;27.680;85.304;2022-08-19T11:12:40;27.80;93.30
50907;DHT22;36882;27.680;85.304;2022-08-19T11:15:11;27.90;92.10
50907;DHT22;36882;27.680;85.304;2022-08-19T11:17:44;27.80;93.20
50907;DHT22;36882;27.680;85.304;2022-08-19T11:20:30;27.70;92.80
50907;DHT22;36882;27.680;85.304;2022-08-19T11:23:02;27.80;92.80
50907;DHT22;36882;27.680;85.304;2022-08-19T11:25:47;27.90;93.20
50907;DHT22;36882;27.680;85.304;2022-08-19T11:28:19;28.10;93.50
50907;DHT22;36882;27.680;85.304;2022-08-19T11:30:49;28.10;92.70
50907;DHT22;36882;27.680;85.304;2022-08-19T11:33:20;28.10;92.70
50907;DHT22;36882;27.680;85.304;2022-08-19T11:36:06;28.10;93.00
50907;DHT22;36882;27.680;85.304;2022-08-19T11:38:41;28.20;91.90
50907;DHT22;36882;27.680;85.304;2022-08-19T11:41:12;28.10;91.80
50907;DHT22;36882;27.680;85.304;2022-08-19T11:43:42;28.10;92.60
50907;DHT22;36882;27.680;85.304;2022-08-19T11:46:14;28.00;92.20
50907;DHT22;36882;27.680;85.304;2022-08-19T11:48:45;28.10;92.10
50907;DHT22;36882;27.680;85.304;2022-08-19T11:51:18;28.00;91.70
50907;DHT22;36882;27.680;85.304;2022-08-19T11:53:50;28.00;92.80
50907;DHT22;36882;27.680;85.304;2022-08-19T11:56:22;28.00;93.20
50907;DHT22;36882;27.680;85.304;2022-08-19T11:59:09;28.00;92.70
50907;DHT22;36882;27.680;85.304;2022-08-19T12:01:41;28.00;92.20
50907;DHT22;36882;27.680;85.304;2022-08-19T12:04:13;28.00;91.90
50907;DHT22;36882;27.680;85.304;2022-08-19T12:06:45;28.00;92.10
50907;DHT22;36882;27.680;85.304;2022-08-19T12:09:15;27.90;92.80
50907;DHT22;36882;27.680;85.304;2022-08-19T12:12:02;28.00;92.90
50907;DHT22;36882;27.680;85.304;2022-08-19T12:14:48;28.00;92.10
50907;DHT22;36882;27.680;85.304;2022-08-19T12:17:20;27.90;92.90
50907;DHT22;36882;27.680;85.304;2022-08-19T12:19:51;27.80;93.00
50907;DHT22;36882;27.680;85.304;2022-08-19T12:22:21;27.80;92.10
50907;DHT22;36882;27.680;85.304;2022-08-19T12:24:52;27.80;92.00
50907;DHT22;36882;27.680;85.304;2022-08-19T12:27:23;27.80;92.40
50907;DHT22;36882;27.680;85.304;2022-08-19T12:30:11;27.80;92.60
50907;DHT22;36882;27.680;85.304;2022-08-19T12:32:58;27.90;92.90
50907;DHT22;36882;27.680;85.304;2022-08-19T12:35:28;27.90;92.80
50907;DHT22;36882;27.680;85.304;2022-08-19T12:38:00;27.70;92.50
50907;DHT22;36882;27.680;85.304;2022-08-19T12:40:32;27.70;92.70
50907;DHT22;36882;27.680;85.304;2022-08-19T12:43:02;27.70;92.90
50907;DHT22;36882;27.680;85.304;2022-08-19T12:45:34;27.80;92.20
50907;DHT22;36882;27.680;85.304;2022-08-19T12:48:20;27.70;92.80
50907;DHT22;36882;27.680;85.304;2022-08-19T12:51:06;27.60;93.50
50907;DHT22;36882;27.680;85.304;2022-08-19T12:53:37;27.60;93.60
50907;DHT22;36882;27.680;85.304;2022-08-19T12:56:10;27.60;93.70
50907;DHT22;36882;27.680;85.304;2022-08-19T12:58:56;27.60;94.00
50907;DHT22;36882;27.680;85.304;2022-08-19T13:01:27;27.40;93.80
50907;DHT22;36882;27.680;85.304;2022-08-19T13:04:00;27.40;94.00
50907;DHT22;36882;27.680;85.304;2022-08-19T13:06:31;27.40;94.90
50907;DHT22;36882;27.680;85.304;2022-08-19T13:09:02;27.30;95.40
50907;DHT22;36882;27.680;85.304;2022-08-19T13:11:34;27.20;95.80
50907;DHT22;36882;27.680;85.304;2022-08-19T13:14:05;27.20;95.60
50907;DHT22;36882;27.680;85.304;2022-08-19T13:16:36;27.30;95.40
50907;DHT22;36882;27.680;85.304;2022-08-19T13:19:07;27.30;95.10
50907;DHT22;36882;27.680;85.304;2022-08-19T13:21:38;27.20;95.10
50907;DHT22;36882;27.680;85.304;2022-08-19T13:24:09;27.10;95.40
50907;DHT22;36882;27.680;85.304;2022-08-19T13:26:39;27.20;95.60
50907;DHT22;36882;27.680;85.304;2022-08-19T13:29:25;27.20;95.10
50907;DHT22;36882;27.680;85.304;2022-08-19T13:32:12;27.20;94.70
50907;DHT22;36882;27.680;85.304;2022-08-19T13:34:52;27.20;94.90
50907;DHT22;36882;27.680;85.304;2022-08-19T13:37:23;27.20;94.50
50907;DHT22;36882;27.680;85.304;2022-08-19T13:40:17;27.10;94.70
50907;DHT22;36882;27.680;85.304;2022-08-19T13:42:51;27.10;94.70
50907;DHT22;36882;27.680;85.304;2022-08-19T13:45:24;27.10;94.50
50907;DHT22;36882;27.680;85.304;2022-08-19T13:47:56;27.00;95.00
50907;DHT22;36882;27.680;85.304;2022-08-19T13:50:29;26.90;95.40
50907;DHT22;36882;27.680;85.304;2022-08-19T13:53:01;26.90;95.20
50907;DHT22;36882;27.680;85.304;2022-08-19T13:55:33;27.00;95.00
50907;DHT22;36882;27.680;85.304;2022-08-19T13:58:05;27.00;95.10
50907;DHT22;36882;27.680;85.304;2022-08-19T14:00:40;26.90;95.00
50907;DHT22;36882;27.680;85.304;2022-08-19T14:03:10;27.00;95.20
50907;DHT22;36882;27.680;85.304;2022-08-19T14:05:41;27.00;95.20
50907;DHT22;36882;27.680;85.304;2022-08-19T14:08:27;26.90;95.20
50907;DHT22;36882;27.680;85.304;2022-08-19T14:11:00;26.90;95.40
50907;DHT22;36882;27.680;85.304;2022-08-19T14:13:34;26.90;95.30
50907;DHT22;36882;27.680;85.304;2022-08-19T14:16:10;26.80;95.60
50907;DHT22;36882;27.680;85.304;2022-08-19T14:18:42;26.70;96.00
50907;DHT22;36882;27.680;85.304;2022-08-19T14:21:19;26.70;96.50
50907;DHT22;36882;27.680;85.304;2022-08-19T14:23:53;26.60;96.70
50907;DHT22;36882;27.680;85.304;2022-08-19T14:26:23;26.70;97.10
50907;DHT22;36882;27.680;85.304;2022-08-19T14:28:54;26.70;97.10
50907;DHT22;36882;27.680;85.304;2022-08-19T14:31:27;26.70;96.90
50907;DHT22;36882;27.680;85.304;2022-08-19T14:33:57;26.80;96.80
50907;DHT22;36882;27.680;85.304;2022-08-19T14:36:29;26.80;96.70
50907;DHT22;36882;27.680;85.304;2022-08-19T14:39:17;26.80;96.80
50907;DHT22;36882;27.680;85.304;2022-08-19T14:41:47;26.80;96.50
50907;DHT22;36882;27.680;85.304;2022-08-19T14:44:18;26.70;96.40
50907;DHT22;36882;27.680;85.304;2022-08-19T14:46:49;26.50;96.70
50907;DHT22;36882;27.680;85.304;2022-08-19T14:49:21;26.50;97.00
50907;DHT22;36882;27.680;85.304;2022-08-19T14:52:03;26.40;97.30
50907;DHT22;36882;27.680;85.304;2022-08-19T14:54:34;26.30;97.50
50907;DHT22;36882;27.680;85.304;2022-08-19T14:57:04;26.10;97.60
50907;DHT22;36882;27.680;85.304;2022-08-19T14:59:35;26.00;97.70
50907;DHT22;36882;27.680;85.304;2022-08-19T15:02:06;26.00;97.70
50907;DHT22;36882;27.680;85.304;2022-08-19T15:04:56;26.00;97.70
50907;DHT22;36882;27.680;85.304;2022-08-19T15:07:28;26.00;97.40
50907;DHT22;36882;27.680;85.304;2022-08-19T15:09:59;26.00;97.40
50907;DHT22;36882;27.680;85.304;2022-08-19T15:12:45;25.90;97.60
50907;DHT22;36882;27.680;85.304;2022-08-19T15:15:18;25.90;97.80
50907;DHT22;36882;27.680;85.304;2022-08-19T15:18:05;25.90;97.70
50907;DHT22;36882;27.680;85.304;2022-08-19T15:20:35;25.90;97.90
50907;DHT22;36882;27.680;85.304;2022-08-19T15:23:21;26.00;97.90
50907;DHT22;36882;27.680;85.304;2022-08-19T15:26:07;26.00;97.90
50907;DHT22;36882;27.680;85.304;2022-08-19T15:28:43;26.10;98.00
50907;DHT22;36882;27.680;85.304;2022-08-19T15:31:17;26.10;97.90
50907;DHT22;36882;27.680;85.304;2022-08-19T15:33:56;26.10;98.20
50907;DHT22;36882;27.680;85.304;2022-08-19T15:36:42;26.20;98.50
50907;DHT22;36882;27.680;85.304;2022-08-19T15:39:12;26.20;98.40
50907;DHT22;36882;27.680;85.304;2022-08-19T15:41:43;26.20;98.50
50907;DHT22;36882;27.680;85.304;2022-08-19T15:44:17;26.10;98.50
50907;DHT22;36882;27.680;85.304;2022-08-19T15:47:03;26.20;98.80
50907;DHT22;36882;27.680;85.304;2022-08-19T15:49:33;26.10;98.90
50907;DHT22;36882;27.680;85.304;2022-08-19T15:52:04;26.20;99.00
50907;DHT22;36882;27.680;85.304;2022-08-19T15:54:36;26.20;99.10
50907;DHT22;36882;27.680;85.304;2022-08-19T15:57:12;26.20;99.20
50907;DHT22;36882;27.680;85.304;2022-08-19T16:00:01;26.10;98.90
50907;DHT22;36882;27.680;85.304;2022-08-19T16:02:53;26.10;99.10
50907;DHT22;36882;27.680;85.304;2022-08-19T16:05:41;25.90;99.10
50907;DHT22;36882;27.680;85.304;2022-08-19T16:08:29;25.80;99.60
50907;DHT22;36882;27.680;85.304;2022-08-19T16:11:19;25.70;99.90
50907;DHT22;36882;27.680;85.304;2022-08-19T16:13:52;25.60;99.90
50907;DHT22;36882;27.680;85.304;2022-08-19T16:16:30;25.70;99.90
50907;DHT22;36882;27.680;85.304;2022-08-19T16:19:04;25.70;99.70
50907;DHT22;36882;27.680;85.304;2022-08-19T16:21:53;25.70;99.80
50907;DHT22;36882;27.680;85.304;2022-08-19T16:24:26;25.50;99.90